Pinson, Alabama
Current Conditions -  °F | °C
As of 7:53 PM on Saturday 22 Nov 2014 (Local Time) from KBHM Reporting Station
Overcast Overcast  
Wind Chill: 61°   Ceiling: 3000
Heat Index: 61°   Visibility: 10mi
Dew Point: 48°   Wind: 8mph
Humidity: 62%   Direction: 130°SE
Pressure: 30.16"   Gusts: NA
Location:  33.69°N, 86.68°W
Report Text: KBHM 230153Z 13007KT 10SM BKN030 OVC042 16/09 A3016 RMK AO2 SLP210 T01610089
Loading
Personal Weather Stations






























Interactive Weather Map New forecast layout! Learn more

10-Day Weather Forecast

Advertisements
Track Severe Weather on mobile